Boulia, Australia
Current Conditions -  °F | °C
As of 7:30 AM on Saturday 20 Dec 2014 (Local Time) from YBMA Reporting Station
Clear Clear  
Wind Chill: 88°   Ceiling: Unl
Heat Index: 88°   Visibility: 6mi
Dew Point: 52°   Wind: 9mph
Humidity: 29%   Direction: 100°E
Pressure: 29.88"   Gusts: NA
Location:  22.91°S, 139.91°E
Report Text: YBMA 192130Z AUTO 10008KT 9999 // NCD 31/11 Q1012
Loading
Personal Weather Stations






























Interactive Weather Map New forecast layout! Learn more

10-Day Weather Forecast

Advertisements
Track Severe Weather on mobile